sensor_id;sensor_type;location;lat;lon;timestamp;temperature;humidity
24260;DHT22;12384;48.112;18.418;2022-10-16T00:01:41;14.80;65.60
24260;DHT22;12384;48.112;18.418;2022-10-16T00:04:10;14.80;65.80
24260;DHT22;12384;48.112;18.418;2022-10-16T00:06:39;14.80;65.80
24260;DHT22;12384;48.112;18.418;2022-10-16T00:09:07;14.80;66.00
24260;DHT22;12384;48.112;18.418;2022-10-16T00:11:38;14.80;66.10
24260;DHT22;12384;48.112;18.418;2022-10-16T00:14:09;14.80;66.10
24260;DHT22;12384;48.112;18.418;2022-10-16T00:16:38;14.80;66.20
24260;DHT22;12384;48.112;18.418;2022-10-16T00:19:09;14.70;66.00
24260;DHT22;12384;48.112;18.418;2022-10-16T00:21:38;14.70;66.20
24260;DHT22;12384;48.112;18.418;2022-10-16T00:24:08;14.80;66.40
24260;DHT22;12384;48.112;18.418;2022-10-16T00:26:38;14.70;66.30
24260;DHT22;12384;48.112;18.418;2022-10-16T00:29:07;14.70;66.50
24260;DHT22;12384;48.112;18.418;2022-10-16T00:31:36;14.70;66.70
24260;DHT22;12384;48.112;18.418;2022-10-16T00:34:04;14.70;66.80
24260;DHT22;12384;48.112;18.418;2022-10-16T00:36:34;14.70;66.80
24260;DHT22;12384;48.112;18.418;2022-10-16T00:39:03;14.70;66.90
24260;DHT22;12384;48.112;18.418;2022-10-16T00:41:32;14.60;66.90
24260;DHT22;12384;48.112;18.418;2022-10-16T00:44:03;14.60;67.00
24260;DHT22;12384;48.112;18.418;2022-10-16T00:46:37;14.60;67.10
24260;DHT22;12384;48.112;18.418;2022-10-16T00:49:07;14.60;67.30
24260;DHT22;12384;48.112;18.418;2022-10-16T00:51:40;14.60;67.40
24260;DHT22;12384;48.112;18.418;2022-10-16T00:54:12;14.60;67.60
24260;DHT22;12384;48.112;18.418;2022-10-16T00:56:42;14.50;67.50
24260;DHT22;12384;48.112;18.418;2022-10-16T00:59:16;14.50;67.70
24260;DHT22;12384;48.112;18.418;2022-10-16T01:01:46;14.50;67.90
24260;DHT22;12384;48.112;18.418;2022-10-16T01:04:14;14.50;67.90
24260;DHT22;12384;48.112;18.418;2022-10-16T01:06:51;14.50;68.00
24260;DHT22;12384;48.112;18.418;2022-10-16T01:09:27;14.40;68.10
24260;DHT22;12384;48.112;18.418;2022-10-16T01:12:03;14.40;68.20
24260;DHT22;12384;48.112;18.418;2022-10-16T01:14:42;14.40;68.30
24260;DHT22;12384;48.112;18.418;2022-10-16T01:17:16;14.40;68.30
24260;DHT22;12384;48.112;18.418;2022-10-16T01:20:11;14.30;68.40
24260;DHT22;12384;48.112;18.418;2022-10-16T01:22:59;14.30;68.40
24260;DHT22;12384;48.112;18.418;2022-10-16T01:25:41;14.20;68.40
24260;DHT22;12384;48.112;18.418;2022-10-16T01:28:15;14.20;68.60
24260;DHT22;12384;48.112;18.418;2022-10-16T01:30:45;14.10;68.60
24260;DHT22;12384;48.112;18.418;2022-10-16T01:33:18;14.10;68.80
24260;DHT22;12384;48.112;18.418;2022-10-16T01:35:52;14.10;69.10
24260;DHT22;12384;48.112;18.418;2022-10-16T01:38:25;14.00;69.60
24260;DHT22;12384;48.112;18.418;2022-10-16T01:41:00;14.00;69.80
24260;DHT22;12384;48.112;18.418;2022-10-16T01:43:34;14.00;70.00
24260;DHT22;12384;48.112;18.418;2022-10-16T01:46:05;13.90;70.10
24260;DHT22;12384;48.112;18.418;2022-10-16T01:48:36;13.90;70.20
24260;DHT22;12384;48.112;18.418;2022-10-16T01:51:07;13.90;70.40
24260;DHT22;12384;48.112;18.418;2022-10-16T01:53:37;13.80;70.40
24260;DHT22;12384;48.112;18.418;2022-10-16T01:56:09;13.80;70.50
24260;DHT22;12384;48.112;18.418;2022-10-16T01:58:46;13.80;70.70
24260;DHT22;12384;48.112;18.418;2022-10-16T02:01:17;13.80;71.00
24260;DHT22;12384;48.112;18.418;2022-10-16T02:03:48;13.80;71.10
24260;DHT22;12384;48.112;18.418;2022-10-16T02:06:18;13.80;71.40
24260;DHT22;12384;48.112;18.418;2022-10-16T02:08:47;13.70;71.50
24260;DHT22;12384;48.112;18.418;2022-10-16T02:11:15;13.80;71.70
24260;DHT22;12384;48.112;18.418;2022-10-16T02:13:48;13.70;71.70
24260;DHT22;12384;48.112;18.418;2022-10-16T02:16:19;13.70;71.80
24260;DHT22;12384;48.112;18.418;2022-10-16T02:18:47;13.70;71.80
24260;DHT22;12384;48.112;18.418;2022-10-16T02:21:21;13.70;71.80
24260;DHT22;12384;48.112;18.418;2022-10-16T02:23:58;13.60;71.70
24260;DHT22;12384;48.112;18.418;2022-10-16T02:26:30;13.60;71.80
24260;DHT22;12384;48.112;18.418;2022-10-16T02:29:04;13.60;71.80
24260;DHT22;12384;48.112;18.418;2022-10-16T02:31:38;13.50;72.00
24260;DHT22;12384;48.112;18.418;2022-10-16T02:34:10;13.50;72.10
24260;DHT22;12384;48.112;18.418;2022-10-16T02:36:41;13.50;72.30
24260;DHT22;12384;48.112;18.418;2022-10-16T02:39:10;13.40;72.80
24260;DHT22;12384;48.112;18.418;2022-10-16T02:41:39;13.40;73.20
24260;DHT22;12384;48.112;18.418;2022-10-16T02:44:09;13.40;73.70
24260;DHT22;12384;48.112;18.418;2022-10-16T02:46:38;13.40;74.00
24260;DHT22;12384;48.112;18.418;2022-10-16T02:49:06;13.40;74.30
24260;DHT22;12384;48.112;18.418;2022-10-16T02:51:35;13.40;74.80
24260;DHT22;12384;48.112;18.418;2022-10-16T02:54:04;13.50;75.10
24260;DHT22;12384;48.112;18.418;2022-10-16T02:56:32;13.50;75.40
24260;DHT22;12384;48.112;18.418;2022-10-16T02:59:01;13.50;75.70
24260;DHT22;12384;48.112;18.418;2022-10-16T03:01:31;13.50;76.00
24260;DHT22;12384;48.112;18.418;2022-10-16T03:03:59;13.50;76.40
24260;DHT22;12384;48.112;18.418;2022-10-16T03:06:28;13.50;76.50
24260;DHT22;12384;48.112;18.418;2022-10-16T03:08:56;13.60;76.80
24260;DHT22;12384;48.112;18.418;2022-10-16T03:11:25;13.60;77.30
24260;DHT22;12384;48.112;18.418;2022-10-16T03:13:53;13.60;77.70
24260;DHT22;12384;48.112;18.418;2022-10-16T03:16:21;13.60;77.90
24260;DHT22;12384;48.112;18.418;2022-10-16T03:18:51;13.60;77.70
24260;DHT22;12384;48.112;18.418;2022-10-16T03:21:20;13.60;77.70
24260;DHT22;12384;48.112;18.418;2022-10-16T03:23:48;13.60;77.70
24260;DHT22;12384;48.112;18.418;2022-10-16T03:26:17;13.70;77.80
24260;DHT22;12384;48.112;18.418;2022-10-16T03:28:45;13.70;77.70
24260;DHT22;12384;48.112;18.418;2022-10-16T03:31:14;13.70;77.60
24260;DHT22;12384;48.112;18.418;2022-10-16T03:33:42;13.70;77.50
24260;DHT22;12384;48.112;18.418;2022-10-16T03:36:12;13.70;77.40
24260;DHT22;12384;48.112;18.418;2022-10-16T03:38:40;13.60;78.00
24260;DHT22;12384;48.112;18.418;2022-10-16T03:41:09;13.60;77.30
24260;DHT22;12384;48.112;18.418;2022-10-16T03:43:37;13.60;77.40
24260;DHT22;12384;48.112;18.418;2022-10-16T03:46:06;13.60;77.50
24260;DHT22;12384;48.112;18.418;2022-10-16T03:48:34;13.60;77.60
24260;DHT22;12384;48.112;18.418;2022-10-16T03:51:03;13.60;77.80
24260;DHT22;12384;48.112;18.418;2022-10-16T03:53:32;13.50;78.00
24260;DHT22;12384;48.112;18.418;2022-10-16T03:56:01;13.50;78.20
24260;DHT22;12384;48.112;18.418;2022-10-16T03:58:29;13.50;78.40
24260;DHT22;12384;48.112;18.418;2022-10-16T04:00:58;13.50;78.60
24260;DHT22;12384;48.112;18.418;2022-10-16T04:03:26;13.50;78.80
24260;DHT22;12384;48.112;18.418;2022-10-16T04:05:55;13.50;79.10
24260;DHT22;12384;48.112;18.418;2022-10-16T04:08:24;13.40;79.40
24260;DHT22;12384;48.112;18.418;2022-10-16T04:10:53;13.40;79.80
24260;DHT22;12384;48.112;18.418;2022-10-16T04:13:22;13.40;80.30
24260;DHT22;12384;48.112;18.418;2022-10-16T04:15:50;13.40;80.70
24260;DHT22;12384;48.112;18.418;2022-10-16T04:18:19;13.40;81.30
24260;DHT22;12384;48.112;18.418;2022-10-16T04:20:47;13.40;82.00
24260;DHT22;12384;48.112;18.418;2022-10-16T04:23:16;13.40;82.60
24260;DHT22;12384;48.112;18.418;2022-10-16T04:25:44;13.40;83.00
24260;DHT22;12384;48.112;18.418;2022-10-16T04:28:14;13.40;83.40
24260;DHT22;12384;48.112;18.418;2022-10-16T04:30:42;13.40;83.90
24260;DHT22;12384;48.112;18.418;2022-10-16T04:33:11;13.40;84.30
24260;DHT22;12384;48.112;18.418;2022-10-16T04:35:39;13.40;84.70
24260;DHT22;12384;48.112;18.418;2022-10-16T04:38:08;13.40;84.90
24260;DHT22;12384;48.112;18.418;2022-10-16T04:40:36;13.40;85.80
24260;DHT22;12384;48.112;18.418;2022-10-16T04:43:05;13.40;85.30
24260;DHT22;12384;48.112;18.418;2022-10-16T04:45:35;13.40;85.30
24260;DHT22;12384;48.112;18.418;2022-10-16T04:48:04;13.40;85.50
24260;DHT22;12384;48.112;18.418;2022-10-16T04:50:32;13.30;85.30
24260;DHT22;12384;48.112;18.418;2022-10-16T04:53:04;13.30;85.30
24260;DHT22;12384;48.112;18.418;2022-10-16T04:55:33;13.30;85.30
24260;DHT22;12384;48.112;18.418;2022-10-16T04:58:02;13.30;85.30
24260;DHT22;12384;48.112;18.418;2022-10-16T05:00:31;13.20;85.30
24260;DHT22;12384;48.112;18.418;2022-10-16T05:03:00;13.20;85.30
24260;DHT22;12384;48.112;18.418;2022-10-16T05:05:33;13.20;85.50
24260;DHT22;12384;48.112;18.418;2022-10-16T05:08:02;13.10;85.30
24260;DHT22;12384;48.112;18.418;2022-10-16T05:10:31;13.10;85.60
24260;DHT22;12384;48.112;18.418;2022-10-16T05:13:00;13.10;85.50
24260;DHT22;12384;48.112;18.418;2022-10-16T05:15:28;13.00;85.30
24260;DHT22;12384;48.112;18.418;2022-10-16T05:17:59;13.00;85.40
24260;DHT22;12384;48.112;18.418;2022-10-16T05:20:28;12.90;85.60
24260;DHT22;12384;48.112;18.418;2022-10-16T05:22:56;12.90;86.40
24260;DHT22;12384;48.112;18.418;2022-10-16T05:25:25;12.90;87.10
24260;DHT22;12384;48.112;18.418;2022-10-16T05:27:54;12.90;88.70
24260;DHT22;12384;48.112;18.418;2022-10-16T05:30:22;13.00;90.30
24260;DHT22;12384;48.112;18.418;2022-10-16T05:32:51;13.10;91.20
24260;DHT22;12384;48.112;18.418;2022-10-16T05:35:21;13.30;92.30
24260;DHT22;12384;48.112;18.418;2022-10-16T05:37:50;13.70;93.40
24260;DHT22;12384;48.112;18.418;2022-10-16T05:40:18;14.00;93.90
24260;DHT22;12384;48.112;18.418;2022-10-16T05:42:47;14.40;93.60
24260;DHT22;12384;48.112;18.418;2022-10-16T05:45:15;14.80;93.40
24260;DHT22;12384;48.112;18.418;2022-10-16T05:47:44;15.10;93.10
24260;DHT22;12384;48.112;18.418;2022-10-16T05:50:14;15.60;92.20
24260;DHT22;12384;48.112;18.418;2022-10-16T05:52:44;16.00;91.40
24260;DHT22;12384;48.112;18.418;2022-10-16T05:55:12;16.40;87.30
24260;DHT22;12384;48.112;18.418;2022-10-16T05:57:41;16.60;81.50
24260;DHT22;12384;48.112;18.418;2022-10-16T06:00:10;16.60;76.60
24260;DHT22;12384;48.112;18.418;2022-10-16T06:02:38;16.40;73.50
24260;DHT22;12384;48.112;18.418;2022-10-16T06:05:07;16.30;72.30
24260;DHT22;12384;48.112;18.418;2022-10-16T06:07:36;16.20;73.30
24260;DHT22;12384;48.112;18.418;2022-10-16T06:10:07;16.10;73.40
24260;DHT22;12384;48.112;18.418;2022-10-16T06:12:36;16.10;72.70
24260;DHT22;12384;48.112;18.418;2022-10-16T06:15:04;16.00;71.70
24260;DHT22;12384;48.112;18.418;2022-10-16T06:17:33;16.00;71.00
24260;DHT22;12384;48.112;18.418;2022-10-16T06:20:02;16.00;71.70
24260;DHT22;12384;48.112;18.418;2022-10-16T06:22:30;16.00;70.90
24260;DHT22;12384;48.112;18.418;2022-10-16T06:24:59;16.00;69.40
24260;DHT22;12384;48.112;18.418;2022-10-16T06:27:28;15.90;68.00
24260;DHT22;12384;48.112;18.418;2022-10-16T06:29:57;15.90;68.40
24260;DHT22;12384;48.112;18.418;2022-10-16T06:32:27;16.10;70.80
24260;DHT22;12384;48.112;18.418;2022-10-16T06:34:55;16.40;72.10
24260;DHT22;12384;48.112;18.418;2022-10-16T06:37:24;16.90;72.30
24260;DHT22;12384;48.112;18.418;2022-10-16T06:39:53;17.50;71.30
24260;DHT22;12384;48.112;18.418;2022-10-16T06:42:22;18.00;70.10
24260;DHT22;12384;48.112;18.418;2022-10-16T06:44:52;18.60;69.70
24260;DHT22;12384;48.112;18.418;2022-10-16T06:47:21;19.30;67.90
24260;DHT22;12384;48.112;18.418;2022-10-16T06:49:49;19.90;64.00
24260;DHT22;12384;48.112;18.418;2022-10-16T06:52:20;20.50;61.00
24260;DHT22;12384;48.112;18.418;2022-10-16T06:54:49;21.00;58.80
24260;DHT22;12384;48.112;18.418;2022-10-16T06:57:18;21.40;57.00
24260;DHT22;12384;48.112;18.418;2022-10-16T06:59:46;21.60;54.10
24260;DHT22;12384;48.112;18.418;2022-10-16T07:02:22;21.60;52.60
24260;DHT22;12384;48.112;18.418;2022-10-16T07:04:51;21.30;51.40
24260;DHT22;12384;48.112;18.418;2022-10-16T07:07:20;21.00;51.10
24260;DHT22;12384;48.112;18.418;2022-10-16T07:09:51;20.80;51.50
24260;DHT22;12384;48.112;18.418;2022-10-16T07:12:20;20.80;51.90
24260;DHT22;12384;48.112;18.418;2022-10-16T07:14:49;20.90;51.80
24260;DHT22;12384;48.112;18.418;2022-10-16T07:17:19;21.20;51.20
24260;DHT22;12384;48.112;18.418;2022-10-16T07:19:48;21.50;51.00
24260;DHT22;12384;48.112;18.418;2022-10-16T07:22:19;21.90;51.00
24260;DHT22;12384;48.112;18.418;2022-10-16T07:24:48;22.30;50.80
24260;DHT22;12384;48.112;18.418;2022-10-16T07:27:18;22.80;50.40
24260;DHT22;12384;48.112;18.418;2022-10-16T07:29:49;23.30;48.70
24260;DHT22;12384;48.112;18.418;2022-10-16T07:32:17;23.50;47.40
24260;DHT22;12384;48.112;18.418;2022-10-16T07:34:47;23.40;46.10
24260;DHT22;12384;48.112;18.418;2022-10-16T07:37:16;23.10;45.20
24260;DHT22;12384;48.112;18.418;2022-10-16T07:39:44;22.70;44.70
24260;DHT22;12384;48.112;18.418;2022-10-16T07:42:13;22.10;44.50
24260;DHT22;12384;48.112;18.418;2022-10-16T07:44:41;21.70;45.10
24260;DHT22;12384;48.112;18.418;2022-10-16T07:47:10;21.20;45.60
24260;DHT22;12384;48.112;18.418;2022-10-16T07:49:38;20.80;45.80
24260;DHT22;12384;48.112;18.418;2022-10-16T07:52:08;20.50;46.40
24260;DHT22;12384;48.112;18.418;2022-10-16T07:54:37;20.10;46.80
24260;DHT22;12384;48.112;18.418;2022-10-16T07:57:05;19.90;47.40
24260;DHT22;12384;48.112;18.418;2022-10-16T07:59:34;19.60;47.80
24260;DHT22;12384;48.112;18.418;2022-10-16T08:02:03;19.50;48.00
24260;DHT22;12384;48.112;18.418;2022-10-16T08:04:31;19.30;48.30
24260;DHT22;12384;48.112;18.418;2022-10-16T08:07:00;19.10;48.30
24260;DHT22;12384;48.112;18.418;2022-10-16T08:09:29;19.00;48.40
24260;DHT22;12384;48.112;18.418;2022-10-16T08:11:58;18.90;48.70
24260;DHT22;12384;48.112;18.418;2022-10-16T08:14:28;18.80;49.10
24260;DHT22;12384;48.112;18.418;2022-10-16T08:16:57;18.70;49.50
24260;DHT22;12384;48.112;18.418;2022-10-16T08:19:25;18.90;50.30
24260;DHT22;12384;48.112;18.418;2022-10-16T08:21:54;19.10;50.70
24260;DHT22;12384;48.112;18.418;2022-10-16T08:24:22;19.50;50.90
24260;DHT22;12384;48.112;18.418;2022-10-16T08:26:54;20.00;51.10
24260;DHT22;12384;48.112;18.418;2022-10-16T08:29:23;20.50;50.70
24260;DHT22;12384;48.112;18.418;2022-10-16T08:31:51;21.10;50.60
24260;DHT22;12384;48.112;18.418;2022-10-16T08:34:20;21.70;50.40
24260;DHT22;12384;48.112;18.418;2022-10-16T08:36:48;22.40;49.20
24260;DHT22;12384;48.112;18.418;2022-10-16T08:39:17;23.00;48.70
24260;DHT22;12384;48.112;18.418;2022-10-16T08:45:07;24.20;46.40
24260;DHT22;12384;48.112;18.418;2022-10-16T08:47:45;24.80;45.60
24260;DHT22;12384;48.112;18.418;2022-10-16T08:50:21;25.20;43.20
24260;DHT22;12384;48.112;18.418;2022-10-16T08:52:51;25.50;42.20
24260;DHT22;12384;48.112;18.418;2022-10-16T08:55:30;25.60;41.40
24260;DHT22;12384;48.112;18.418;2022-10-16T08:58:01;25.60;40.20
24260;DHT22;12384;48.112;18.418;2022-10-16T09:00:30;25.50;40.90
24260;DHT22;12384;48.112;18.418;2022-10-16T09:03:05;25.40;40.40
24260;DHT22;12384;48.112;18.418;2022-10-16T09:06:06;25.20;39.80
24260;DHT22;12384;48.112;18.418;2022-10-16T09:08:46;25.10;40.00
24260;DHT22;12384;48.112;18.418;2022-10-16T09:11:23;24.70;39.70
24260;DHT22;12384;48.112;18.418;2022-10-16T09:14:01;24.50;40.00
24260;DHT22;12384;48.112;18.418;2022-10-16T09:16:35;24.40;41.10
24260;DHT22;12384;48.112;18.418;2022-10-16T09:19:20;24.40;41.30
24260;DHT22;12384;48.112;18.418;2022-10-16T09:21:51;24.40;41.30
24260;DHT22;12384;48.112;18.418;2022-10-16T09:24:23;24.50;41.60
24260;DHT22;12384;48.112;18.418;2022-10-16T09:26:55;24.70;41.30
24260;DHT22;12384;48.112;18.418;2022-10-16T09:29:25;25.10;41.00
24260;DHT22;12384;48.112;18.418;2022-10-16T09:31:55;25.30;40.60
24260;DHT22;12384;48.112;18.418;2022-10-16T09:34:36;25.30;39.70
24260;DHT22;12384;48.112;18.418;2022-10-16T09:37:12;25.20;39.50
24260;DHT22;12384;48.112;18.418;2022-10-16T09:39:45;25.00;39.40
24260;DHT22;12384;48.112;18.418;2022-10-16T09:42:16;24.70;39.60
24260;DHT22;12384;48.112;18.418;2022-10-16T09:44:49;24.40;39.70
24260;DHT22;12384;48.112;18.418;2022-10-16T09:47:21;24.00;39.70
24260;DHT22;12384;48.112;18.418;2022-10-16T09:49:52;23.60;40.10
24260;DHT22;12384;48.112;18.418;2022-10-16T09:52:22;23.30;40.40
24260;DHT22;12384;48.112;18.418;2022-10-16T09:54:52;23.00;40.90
24260;DHT22;12384;48.112;18.418;2022-10-16T09:57:22;22.80;41.40
24260;DHT22;12384;48.112;18.418;2022-10-16T09:59:54;22.60;41.70
24260;DHT22;12384;48.112;18.418;2022-10-16T10:02:29;22.50;41.90
24260;DHT22;12384;48.112;18.418;2022-10-16T10:04:59;22.30;42.10
24260;DHT22;12384;48.112;18.418;2022-10-16T10:07:30;22.10;42.40
24260;DHT22;12384;48.112;18.418;2022-10-16T10:10:02;21.90;42.70
24260;DHT22;12384;48.112;18.418;2022-10-16T10:12:32;21.70;43.30
24260;DHT22;12384;48.112;18.418;2022-10-16T10:15:09;21.60;43.80
24260;DHT22;12384;48.112;18.418;2022-10-16T10:17:46;21.50;44.00
24260;DHT22;12384;48.112;18.418;2022-10-16T10:20:26;21.40;44.20
24260;DHT22;12384;48.112;18.418;2022-10-16T10:22:56;21.40;44.20
24260;DHT22;12384;48.112;18.418;2022-10-16T10:25:38;21.40;44.00
24260;DHT22;12384;48.112;18.418;2022-10-16T10:28:48;21.40;43.90
24260;DHT22;12384;48.112;18.418;2022-10-16T10:31:25;21.50;44.40
24260;DHT22;12384;48.112;18.418;2022-10-16T10:33:59;21.80;45.30
24260;DHT22;12384;48.112;18.418;2022-10-16T10:36:32;22.30;44.50
24260;DHT22;12384;48.112;18.418;2022-10-16T10:39:05;23.00;43.90
24260;DHT22;12384;48.112;18.418;2022-10-16T10:42:00;23.60;43.40
24260;DHT22;12384;48.112;18.418;2022-10-16T10:44:43;24.30;42.60
24260;DHT22;12384;48.112;18.418;2022-10-16T10:47:24;24.70;41.60
24260;DHT22;12384;48.112;18.418;2022-10-16T10:50:05;25.10;40.50
24260;DHT22;12384;48.112;18.418;2022-10-16T10:52:43;25.40;39.90
24260;DHT22;12384;48.112;18.418;2022-10-16T10:55:23;25.80;39.00
24260;DHT22;12384;48.112;18.418;2022-10-16T10:58:08;26.10;38.30
24260;DHT22;12384;48.112;18.418;2022-10-16T11:00:46;26.40;38.20
24260;DHT22;12384;48.112;18.418;2022-10-16T11:03:31;26.60;37.60
24260;DHT22;12384;48.112;18.418;2022-10-16T11:06:06;26.80;37.30
24260;DHT22;12384;48.112;18.418;2022-10-16T11:08:39;26.90;36.70
24260;DHT22;12384;48.112;18.418;2022-10-16T11:11:14;26.90;35.90
24260;DHT22;12384;48.112;18.418;2022-10-16T11:13:47;26.70;35.20
24260;DHT22;12384;48.112;18.418;2022-10-16T11:16:22;26.30;35.30
24260;DHT22;12384;48.112;18.418;2022-10-16T11:18:58;25.80;36.10
24260;DHT22;12384;48.112;18.418;2022-10-16T11:21:30;25.50;36.80
24260;DHT22;12384;48.112;18.418;2022-10-16T11:24:06;25.20;37.30
24260;DHT22;12384;48.112;18.418;2022-10-16T11:26:41;24.90;37.70
24260;DHT22;12384;48.112;18.418;2022-10-16T11:29:15;24.70;38.40
24260;DHT22;12384;48.112;18.418;2022-10-16T11:31:49;24.60;38.80
24260;DHT22;12384;48.112;18.418;2022-10-16T11:34:25;24.60;39.10
24260;DHT22;12384;48.112;18.418;2022-10-16T11:37:05;24.70;39.50
24260;DHT22;12384;48.112;18.418;2022-10-16T11:39:38;24.90;39.70
24260;DHT22;12384;48.112;18.418;2022-10-16T11:42:11;25.10;39.60
24260;DHT22;12384;48.112;18.418;2022-10-16T11:44:48;25.20;38.70
24260;DHT22;12384;48.112;18.418;2022-10-16T11:47:40;25.30;38.60
24260;DHT22;12384;48.112;18.418;2022-10-16T11:50:32;25.20;38.10
24260;DHT22;12384;48.112;18.418;2022-10-16T11:53:11;25.10;38.20
24260;DHT22;12384;48.112;18.418;2022-10-16T11:55:43;24.90;38.40
24260;DHT22;12384;48.112;18.418;2022-10-16T11:58:22;24.70;38.60
24260;DHT22;12384;48.112;18.418;2022-10-16T12:00:58;24.40;38.70
24260;DHT22;12384;48.112;18.418;2022-10-16T12:03:31;24.20;39.10
24260;DHT22;12384;48.112;18.418;2022-10-16T12:06:14;24.00;39.50
24260;DHT22;12384;48.112;18.418;2022-10-16T12:08:47;23.90;39.80
24260;DHT22;12384;48.112;18.418;2022-10-16T12:11:30;23.60;39.90
24260;DHT22;12384;48.112;18.418;2022-10-16T12:14:21;23.40;40.10
24260;DHT22;12384;48.112;18.418;2022-10-16T12:16:53;23.20;40.50
24260;DHT22;12384;48.112;18.418;2022-10-16T12:19:23;23.10;40.60
24260;DHT22;12384;48.112;18.418;2022-10-16T12:21:56;22.90;40.80
24260;DHT22;12384;48.112;18.418;2022-10-16T12:24:33;22.80;41.10
24260;DHT22;12384;48.112;18.418;2022-10-16T12:27:04;22.70;41.50
24260;DHT22;12384;48.112;18.418;2022-10-16T12:29:36;22.80;42.00
24260;DHT22;12384;48.112;18.418;2022-10-16T12:32:19;23.00;42.30
24260;DHT22;12384;48.112;18.418;2022-10-16T12:35:18;23.40;42.40
24260;DHT22;12384;48.112;18.418;2022-10-16T12:37:50;24.10;41.60
24260;DHT22;12384;48.112;18.418;2022-10-16T12:40:30;24.70;41.50
24260;DHT22;12384;48.112;18.418;2022-10-16T12:42:59;25.30;40.40
24260;DHT22;12384;48.112;18.418;2022-10-16T12:45:38;25.90;40.40
24260;DHT22;12384;48.112;18.418;2022-10-16T12:48:20;26.50;39.70
24260;DHT22;12384;48.112;18.418;2022-10-16T12:51:19;27.20;37.10
24260;DHT22;12384;48.112;18.418;2022-10-16T12:53:59;27.70;36.70
24260;DHT22;12384;48.112;18.418;2022-10-16T12:56:37;28.10;36.10
24260;DHT22;12384;48.112;18.418;2022-10-16T12:59:16;28.30;34.90
24260;DHT22;12384;48.112;18.418;2022-10-16T13:01:57;28.40;34.60
24260;DHT22;12384;48.112;18.418;2022-10-16T13:04:43;28.40;34.50
24260;DHT22;12384;48.112;18.418;2022-10-16T13:07:31;28.20;34.20
24260;DHT22;12384;48.112;18.418;2022-10-16T13:10:21;27.90;34.30
24260;DHT22;12384;48.112;18.418;2022-10-16T13:13:12;27.60;34.10
24260;DHT22;12384;48.112;18.418;2022-10-16T13:15:52;27.30;34.60
24260;DHT22;12384;48.112;18.418;2022-10-16T13:18:27;27.20;34.80
24260;DHT22;12384;48.112;18.418;2022-10-16T13:21:10;27.20;35.40
24260;DHT22;12384;48.112;18.418;2022-10-16T13:23:45;27.20;35.20
24260;DHT22;12384;48.112;18.418;2022-10-16T13:26:26;27.20;35.30
24260;DHT22;12384;48.112;18.418;2022-10-16T13:28:59;27.30;35.00
24260;DHT22;12384;48.112;18.418;2022-10-16T13:31:29;27.40;35.20
24260;DHT22;12384;48.112;18.418;2022-10-16T13:33:59;27.60;35.30
24260;DHT22;12384;48.112;18.418;2022-10-16T13:36:30;27.70;34.90
24260;DHT22;12384;48.112;18.418;2022-10-16T13:39:01;27.90;34.60
24260;DHT22;12384;48.112;18.418;2022-10-16T13:41:36;28.00;34.20
24260;DHT22;12384;48.112;18.418;2022-10-16T13:44:05;28.00;33.60
24260;DHT22;12384;48.112;18.418;2022-10-16T13:46:40;28.00;33.90
24260;DHT22;12384;48.112;18.418;2022-10-16T13:49:13;28.10;33.90
24260;DHT22;12384;48.112;18.418;2022-10-16T13:51:54;28.20;33.50
24260;DHT22;12384;48.112;18.418;2022-10-16T13:54:23;28.20;33.40
24260;DHT22;12384;48.112;18.418;2022-10-16T13:56:54;28.20;33.30
24260;DHT22;12384;48.112;18.418;2022-10-16T13:59:36;28.20;33.50
24260;DHT22;12384;48.112;18.418;2022-10-16T14:02:17;28.20;33.50
24260;DHT22;12384;48.112;18.418;2022-10-16T14:04:47;28.30;32.90
24260;DHT22;12384;48.112;18.418;2022-10-16T14:07:21;28.30;32.90
24260;DHT22;12384;48.112;18.418;2022-10-16T14:09:52;28.20;33.00
24260;DHT22;12384;48.112;18.418;2022-10-16T14:12:23;28.20;32.80
24260;DHT22;12384;48.112;18.418;2022-10-16T14:14:55;28.10;32.50
24260;DHT22;12384;48.112;18.418;2022-10-16T14:17:26;28.10;32.70
24260;DHT22;12384;48.112;18.418;2022-10-16T14:19:58;28.00;32.60
24260;DHT22;12384;48.112;18.418;2022-10-16T14:22:33;27.90;32.60
24260;DHT22;12384;48.112;18.418;2022-10-16T14:25:20;27.90;32.90
24260;DHT22;12384;48.112;18.418;2022-10-16T14:27:59;27.80;32.40
24260;DHT22;12384;48.112;18.418;2022-10-16T14:30:29;27.80;32.90
24260;DHT22;12384;48.112;18.418;2022-10-16T14:32:59;27.70;33.00
24260;DHT22;12384;48.112;18.418;2022-10-16T14:35:30;27.70;32.90
24260;DHT22;12384;48.112;18.418;2022-10-16T14:38:00;27.60;33.00
24260;DHT22;12384;48.112;18.418;2022-10-16T14:40:31;27.50;33.00
24260;DHT22;12384;48.112;18.418;2022-10-16T14:43:01;27.40;33.30
24260;DHT22;12384;48.112;18.418;2022-10-16T14:45:33;27.30;33.30
24260;DHT22;12384;48.112;18.418;2022-10-16T14:48:04;27.20;33.30
24260;DHT22;12384;48.112;18.418;2022-10-16T14:50:34;26.90;33.50
24260;DHT22;12384;48.112;18.418;2022-10-16T14:53:08;26.70;33.70
24260;DHT22;12384;48.112;18.418;2022-10-16T14:55:40;26.50;34.00
24260;DHT22;12384;48.112;18.418;2022-10-16T14:58:14;26.30;34.30
24260;DHT22;12384;48.112;18.418;2022-10-16T15:00:43;26.00;34.50
24260;DHT22;12384;48.112;18.418;2022-10-16T15:03:12;25.80;34.80
24260;DHT22;12384;48.112;18.418;2022-10-16T15:05:41;25.60;35.00
24260;DHT22;12384;48.112;18.418;2022-10-16T15:08:09;25.40;35.10
24260;DHT22;12384;48.112;18.418;2022-10-16T15:10:41;25.10;35.20
24260;DHT22;12384;48.112;18.418;2022-10-16T15:13:13;24.70;35.50
24260;DHT22;12384;48.112;18.418;2022-10-16T15:15:43;24.20;35.90
24260;DHT22;12384;48.112;18.418;2022-10-16T15:18:12;23.70;36.60
24260;DHT22;12384;48.112;18.418;2022-10-16T15:20:41;23.30;37.00
24260;DHT22;12384;48.112;18.418;2022-10-16T15:23:14;22.90;37.30
24260;DHT22;12384;48.112;18.418;2022-10-16T15:25:45;22.40;38.10
24260;DHT22;12384;48.112;18.418;2022-10-16T15:28:16;22.10;38.60
24260;DHT22;12384;48.112;18.418;2022-10-16T15:30:45;21.70;39.10
24260;DHT22;12384;48.112;18.418;2022-10-16T15:33:16;21.40;39.60
24260;DHT22;12384;48.112;18.418;2022-10-16T15:35:47;21.10;39.90
24260;DHT22;12384;48.112;18.418;2022-10-16T15:38:16;20.90;40.30
24260;DHT22;12384;48.112;18.418;2022-10-16T15:40:46;20.60;40.50
24260;DHT22;12384;48.112;18.418;2022-10-16T15:43:15;20.40;40.90
24260;DHT22;12384;48.112;18.418;2022-10-16T15:45:44;20.20;41.30
24260;DHT22;12384;48.112;18.418;2022-10-16T15:48:20;20.00;41.60
24260;DHT22;12384;48.112;18.418;2022-10-16T15:50:48;19.90;41.90